Time;durP1;ratioP1;P1;durP2;ratioP2;P2;SDS_P1;SDS_P2;PMS_P1;PMS_P2;Temp;Humidity;BMP_temperature;BMP_pressure;BME280_temperature;BME280_humidity;BME280_pressure;Samples;Min_cycle;Max_cycle;Signal;HPM_P1;HPM_P2
2021/12/20 00:01:04;;;;;;;22.83;9.38;;;;;;;5.84;97.66;102814.38;5002628;28;20117;-72
2021/12/20 00:03:30;;;;;;;22.73;8.98;;;;;;;5.84;97.54;102809.19;4997271;28;20033;-72
2021/12/20 00:05:55;;;;;;;25.80;9.07;;;;;;;5.85;97.66;102805.81;4997716;28;20026;-72
2021/12/20 00:08:20;;;;;;;23.63;8.95;;;;;;;5.85;97.01;102803.22;5004964;28;20093;-72
2021/12/20 00:10:46;;;;;;;29.02;8.60;;;;;;;5.84;97.48;102804.03;5012320;28;20014;-72
2021/12/20 00:13:11;;;;;;;26.85;9.13;;;;;;;5.85;97.37;102816.16;5001858;28;20054;-72
2021/12/20 00:15:36;;;;;;;22.65;7.82;;;;;;;5.82;97.03;102810.75;5006627;28;20037;-72
2021/12/20 00:18:02;;;;;;;21.77;8.05;;;;;;;5.81;97.18;102803.75;5010294;28;20025;-72
2021/12/20 00:20:28;;;;;;;17.27;7.60;;;;;;;5.81;97.19;102808.94;5002438;28;20489;-72
2021/12/20 00:22:53;;;;;;;20.65;7.82;;;;;;;5.80;97.17;102795.13;5033354;28;20026;-72
2021/12/20 00:25:18;;;;;;;20.25;7.47;;;;;;;5.82;97.21;102801.31;5009117;28;20034;-72
2021/12/20 00:27:44;;;;;;;20.73;7.15;;;;;;;5.82;96.86;102805.56;5008385;28;20085;-72
2021/12/20 00:30:11;;;;;;;18.38;6.88;;;;;;;5.80;96.92;102802.00;5004726;28;20519;-72
2021/12/20 00:32:37;;;;;;;18.45;6.72;;;;;;;5.80;96.50;102802.88;5002467;28;20021;-72
2021/12/20 00:35:03;;;;;;;17.15;6.03;;;;;;;5.80;96.41;102799.41;5007456;28;20036;-72
2021/12/20 00:40:21;;;;;;;16.67;5.22;;;;;;;5.80;96.32;102796.81;5006734;28;20061;-72
2021/12/20 00:42:58;;;;;;;17.83;5.03;;;;;;;5.78;96.32;102796.69;4995799;28;20122;-72
2021/12/20 00:45:26;;;;;;;15.70;5.05;;;;;;;5.78;96.47;102793.19;5006982;28;20021;-72
2021/12/20 00:47:52;;;;;;;15.68;4.80;;;;;;;5.78;96.15;102798.38;5000969;28;20026;-72
2021/12/20 00:50:20;;;;;;;17.30;4.90;;;;;;;5.78;96.18;102800.94;5001383;28;20056;-72
2021/12/20 00:52:46;;;;;;;16.77;4.82;;;;;;;5.77;95.94;102797.47;5010294;28;20080;-72
2021/12/20 00:55:15;;;;;;;26.02;5.40;;;;;;;5.75;95.69;102792.19;5006304;28;20489;-72
2021/12/20 00:57:41;;;;;;;14.02;4.38;;;;;;;5.76;96.04;102795.66;5002551;28;20045;-72
2021/12/20 01:00:07;;;;;;;21.13;4.45;;;;;;;5.75;95.34;102799.06;5003914;28;20037;-72
2021/12/20 01:02:32;;;;;;;11.93;4.28;;;;;;;5.77;95.56;102796.59;4996855;28;20030;-72
2021/12/20 01:04:58;;;;;;;21.10;3.78;;;;;;;5.75;95.35;102786.13;4995194;28;20030;-72
2021/12/20 01:07:24;;;;;;;15.50;3.55;;;;;;;5.76;94.97;102795.66;5001900;28;20038;-72
2021/12/20 01:09:49;;;;;;;13.93;3.55;;;;;;;5.74;94.10;102792.97;5007586;28;20473;-72
2021/12/20 01:12:18;;;;;;;15.57;3.50;;;;;;;5.74;94.42;102797.25;4999186;28;20026;-72
2021/12/20 01:14:45;;;;;;;17.33;3.55;;;;;;;5.73;93.33;102800.63;5002928;28;20105;-72
2021/12/20 01:17:10;;;;;;;18.58;3.83;;;;;;;5.71;93.15;102797.91;4999639;28;20038;-72
2021/12/20 01:19:37;;;;;;;16.67;3.42;;;;;;;5.69;93.75;102796.91;5002617;28;20022;-72
2021/12/20 01:22:04;;;;;;;16.17;3.85;;;;;;;5.70;93.45;102795.22;5005333;28;20485;-72
2021/12/20 01:24:30;;;;;;;15.20;4.00;;;;;;;5.69;93.51;102804.69;5006849;28;20029;-72
2021/12/20 01:26:55;;;;;;;17.83;3.80;;;;;;;5.69;93.44;102803.75;5003855;28;20022;-72
2021/12/20 01:29:21;;;;;;;22.65;3.88;;;;;;;5.66;92.75;102799.28;5005690;28;20448;-72
2021/12/20 01:31:47;;;;;;;24.48;4.07;;;;;;;5.66;92.39;102791.50;5002025;28;20029;-72
2021/12/20 01:34:12;;;;;;;22.02;4.13;;;;;;;5.66;92.51;102785.41;4999391;28;20037;-72
2021/12/20 01:36:37;;;;;;;18.33;3.10;;;;;;;5.65;92.52;102787.13;5010224;28;20017;-72
2021/12/20 01:39:04;;;;;;;19.23;3.28;;;;;;;5.64;92.48;102784.41;4997459;28;20117;-72
2021/12/20 01:41:29;;;;;;;22.45;3.50;;;;;;;5.63;92.20;102793.84;4999758;28;20056;-72
2021/12/20 01:43:54;;;;;;;18.35;3.15;;;;;;;5.62;92.11;102786.91;5001490;28;20076;-72
2021/12/20 01:46:21;;;;;;;16.52;3.08;;;;;;;5.60;91.62;102782.38;5006159;28;20096;-72
2021/12/20 01:48:47;;;;;;;19.65;3.13;;;;;;;5.59;91.80;102781.50;5006718;28;20034;-72
2021/12/20 01:52:00;;;;;;;23.60;3.65;;;;;;;5.56;92.42;102787.34;4998887;28;20022;-72
2021/12/20 01:54:04;;;;;;;14.93;3.15;;;;;;;5.57;92.32;102783.03;4997667;28;20465;-72
2021/12/20 01:56:32;;;;;;;21.98;3.83;;;;;;;5.55;92.24;102790.69;4994433;28;20045;-72
2021/12/20 01:59:05;;;;;;;17.23;3.20;;;;;;;5.57;92.69;102790.81;5002239;28;20589;-71
2021/12/20 02:01:31;;;;;;;22.30;3.30;;;;;;;5.55;91.90;102782.03;4995905;28;20508;-72
2021/12/20 02:04:00;;;;;;;14.05;3.13;;;;;;;5.55;91.41;102771.69;4999822;28;20026;-72
2021/12/20 02:06:32;;;;;;;16.73;3.35;;;;;;;5.55;91.51;102779.47;5003490;28;20026;-72
2021/12/20 02:09:04;;;;;;;20.73;3.53;;;;;;;5.52;90.84;102774.06;5001977;28;20083;-71
2021/12/20 02:11:30;;;;;;;24.23;3.50;;;;;;;5.51;91.07;102775.72;4997717;28;20030;-71
2021/12/20 02:13:55;;;;;;;15.85;3.10;;;;;;;5.50;90.91;102773.03;5000124;28;20053;-72
2021/12/20 02:16:21;;;;;;;25.73;3.40;;;;;;;5.50;91.41;102776.50;4998709;28;20056;-71
2021/12/20 02:18:47;;;;;;;19.45;3.15;;;;;;;5.48;91.43;102772.91;5001599;28;20032;-72
2021/12/20 02:21:12;;;;;;;20.15;3.08;;;;;;;5.47;91.39;102776.28;5000673;28;20417;-72
2021/12/20 02:23:38;;;;;;;24.65;3.47;;;;;;;5.48;91.10;102778.09;4998044;28;20025;-72
2021/12/20 02:26:05;;;;;;;22.05;3.30;;;;;;;5.47;90.95;102776.28;4997200;28;20032;-72
2021/12/20 02:28:36;;;;;;;23.10;3.00;;;;;;;5.48;90.62;102779.78;4998788;28;20481;-72
2021/12/20 02:38:58;;;;;;;18.45;3.45;;;;;;;5.44;90.71;102764.81;5001684;28;20113;-71
2021/12/20 02:41:29;;;;;;;22.42;3.17;;;;;;;5.42;90.49;102767.28;5003915;28;20073;-72
2021/12/20 02:43:57;;;;;;;19.00;2.80;;;;;;;5.42;89.99;102771.53;4995484;28;20018;-72
2021/12/20 02:46:48;;;;;;;19.35;3.03;;;;;;;5.42;90.30;102777.63;5007668;28;20026;-72
2021/12/20 02:49:19;;;;;;;17.90;3.10;;;;;;;5.40;89.80;102772.34;5002758;28;20125;-72
2021/12/20 02:51:47;;;;;;;19.38;3.38;;;;;;;5.40;90.11;102774.00;5001334;28;20520;-72
2021/12/20 02:54:13;;;;;;;21.27;3.10;;;;;;;5.39;90.60;102770.53;5004966;28;20037;-72
2021/12/20 02:56:39;;;;;;;27.60;3.85;;;;;;;5.38;90.15;102763.56;4996983;28;20121;-72
2021/12/20 02:59:07;;;;;;;21.23;4.53;;;;;;;5.38;90.09;102766.13;5003898;28;20437;-72
2021/12/20 03:01:33;;;;;;;15.80;2.40;;;;;;;5.38;89.83;102760.06;5003071;28;20182;-72
2021/12/20 03:03:59;;;;;;;23.73;3.47;;;;;;;5.35;89.22;102768.50;5006194;28;20057;-72
2021/12/20 03:06:37;;;;;;;16.10;2.65;;;;;;;5.35;90.79;102765.91;5006281;28;20037;-72
2021/12/20 03:09:04;;;;;;;21.15;3.80;;;;;;;5.34;91.06;102766.69;5014154;28;20029;-72
2021/12/20 03:11:30;;;;;;;22.10;3.33;;;;;;;5.35;90.25;102759.84;5002646;28;20034;-72
2021/12/20 03:14:07;;;;;;;18.15;3.20;;;;;;;5.34;90.52;102770.97;5005025;28;20026;-72
2021/12/20 03:16:34;;;;;;;18.13;3.47;;;;;;;5.35;90.53;102780.53;4998341;28;20257;-72
2021/12/20 03:19:03;;;;;;;18.25;2.72;;;;;;;5.34;89.79;102771.84;5006867;28;20036;-72
2021/12/20 03:21:29;;;;;;;20.45;3.20;;;;;;;5.35;90.15;102765.91;5008835;28;20052;-72
2021/12/20 03:23:54;;;;;;;28.35;3.85;;;;;;;5.35;89.76;102765.03;5008999;28;20189;-72
2021/12/20 03:26:19;;;;;;;24.23;2.90;;;;;;;5.34;90.02;102756.34;5010445;28;20392;-71
2021/12/20 03:28:44;;;;;;;22.30;3.40;;;;;;;5.33;89.97;102761.41;5032567;28;20029;-71
2021/12/20 03:31:10;;;;;;;20.80;3.17;;;;;;;5.34;90.36;102768.38;5007564;28;20026;-72
2021/12/20 03:33:35;;;;;;;19.70;3.60;;;;;;;5.33;90.12;102766.56;5008240;28;20491;-71
2021/12/20 03:36:00;;;;;;;25.52;3.28;;;;;;;5.31;90.06;102766.47;5001517;28;20064;-71
2021/12/20 03:38:26;;;;;;;26.25;5.68;;;;;;;5.31;90.42;102771.63;4996066;28;20408;-72
2021/12/20 03:40:51;;;;;;;17.13;3.10;;;;;;;5.31;90.38;102763.88;5002054;28;20026;-72
2021/12/20 03:43:18;;;;;;;18.60;3.25;;;;;;;5.30;90.64;102776.69;4994938;28;20022;-72
2021/12/20 03:45:45;;;;;;;19.08;3.17;;;;;;;5.30;90.33;102772.44;5009755;28;20037;-72
2021/12/20 03:48:10;;;;;;;18.27;2.90;;;;;;;5.29;89.76;102767.16;4996112;28;20060;-72
2021/12/20 03:50:35;;;;;;;18.63;4.20;;;;;;;5.28;89.89;102767.94;5010456;28;20469;-72
2021/12/20 03:53:00;;;;;;;19.92;3.13;;;;;;;5.29;90.25;102764.56;5003305;28;20080;-72
2021/12/20 03:55:26;;;;;;;20.88;3.35;;;;;;;5.28;90.48;102758.47;5006660;28;20029;-72
2021/12/20 03:57:51;;;;;;;24.70;4.28;;;;;;;5.26;90.14;102757.47;5005636;28;20045;-72
2021/12/20 04:00:17;;;;;;;20.45;3.45;;;;;;;5.27;90.68;102761.88;4999147;28;20032;-71
2021/12/20 04:02:45;;;;;;;22.05;3.50;;;;;;;5.28;90.63;102770.50;5002499;28;20088;-72
2021/12/20 04:05:11;;;;;;;22.15;4.15;;;;;;;5.27;90.41;102763.53;5000256;28;20026;-71
2021/12/20 04:07:37;;;;;;;29.58;3.92;;;;;;;5.25;89.98;102773.75;5012993;28;20028;-72
2021/12/20 04:10:04;;;;;;;15.20;3.50;;;;;;;5.25;90.54;102766.00;5012476;28;20026;-72
2021/12/20 04:12:29;;;;;;;20.60;3.75;;;;;;;5.26;90.56;102753.97;5011970;28;20024;-71
2021/12/20 04:14:54;;;;;;;24.50;4.28;;;;;;;5.26;90.10;102759.13;5003990;28;20149;-72
2021/12/20 04:17:20;;;;;;;21.00;3.90;;;;;;;5.25;89.86;102757.34;5001880;28;20027;-72
2021/12/20 04:19:45;;;;;;;30.73;4.20;;;;;;;5.25;90.36;102758.25;5005901;28;20021;-72
2021/12/20 04:22:11;;;;;;;17.15;3.88;;;;;;;5.22;90.25;102753.72;5003773;28;20045;-72
2021/12/20 04:24:36;;;;;;;22.50;3.53;;;;;;;5.21;90.44;102759.72;5007208;28;20033;-72
2021/12/20 04:27:01;;;;;;;19.48;3.70;;;;;;;5.20;90.11;102762.19;5004944;28;20034;-72
2021/12/20 04:29:28;;;;;;;24.65;4.10;;;;;;;5.20;90.42;102765.66;5008581;28;20026;-72
2021/12/20 04:31:54;;;;;;;25.25;4.40;;;;;;;5.20;89.72;102759.59;5001809;28;20496;-71
2021/12/20 04:34:19;;;;;;;15.50;3.90;;;;;;;5.20;90.32;102763.06;5004197;28;20030;-72
2021/12/20 04:36:45;;;;;;;19.23;3.80;;;;;;;5.19;89.76;102765.53;4994657;28;20044;-72
2021/12/20 04:39:15;;;;;;;22.25;3.70;;;;;;;5.19;89.75;102757.78;4998195;28;20034;-72
2021/12/20 04:41:40;;;;;;;20.67;4.32;;;;;;;5.18;89.30;102755.97;5003474;28;20022;-72
2021/12/20 04:44:06;;;;;;;23.90;4.53;;;;;;;5.18;88.57;102753.38;5000406;28;20030;-72
2021/12/20 04:46:31;;;;;;;20.30;5.47;;;;;;;5.18;89.05;102753.38;5006674;28;20443;-72
2021/12/20 04:48:57;;;;;;;18.35;4.15;;;;;;;5.17;88.67;102765.44;5006312;28;20026;-71
2021/12/20 04:51:22;;;;;;;23.27;3.60;;;;;;;5.18;88.41;102771.47;5000284;28;20093;-71
2021/12/20 04:53:48;;;;;;;27.08;4.55;;;;;;;5.16;88.81;102763.63;5023127;28;20068;-72
2021/12/20 04:56:13;;;;;;;23.23;3.83;;;;;;;5.16;88.37;102763.63;5001681;28;20109;-72
2021/12/20 04:58:39;;;;;;;23.30;3.85;;;;;;;5.16;87.29;102761.03;5008631;28;20081;-72
2021/12/20 05:01:04;;;;;;;23.52;3.80;;;;;;;5.18;87.92;102758.56;4999685;28;20042;-72
2021/12/20 05:03:29;;;;;;;24.80;4.07;;;;;;;5.17;87.61;102764.50;5002150;28;20117;-72
2021/12/20 05:05:55;;;;;;;24.02;4.05;;;;;;;5.17;87.33;102762.84;4997500;28;20033;-71
2021/12/20 05:08:20;;;;;;;23.40;3.55;;;;;;;5.15;87.75;102755.75;5010734;28;20040;-71
2021/12/20 05:10:45;;;;;;;22.00;3.75;;;;;;;5.14;87.25;102762.59;4995445;28;20378;-72
2021/12/20 05:13:13;;;;;;;19.73;3.70;;;;;;;5.13;87.21;102759.91;5005310;28;20037;-72
2021/12/20 05:15:39;;;;;;;17.60;3.63;;;;;;;5.12;87.17;102766.75;4996948;28;20065;-72
2021/12/20 05:18:07;;;;;;;24.75;4.00;;;;;;;5.13;87.26;102765.06;4999160;28;20037;-72
2021/12/20 05:20:32;;;;;;;22.17;4.32;;;;;;;5.11;87.36;102771.78;4996974;28;20030;-72
2021/12/20 05:22:59;;;;;;;25.25;4.00;;;;;;;5.11;87.96;102769.22;5000883;28;20044;-72
2021/12/20 05:25:25;;;;;;;25.90;3.95;;;;;;;5.08;87.29;102774.16;5006522;28;20029;-72
2021/12/20 05:27:50;;;;;;;25.27;4.78;;;;;;;5.07;87.25;102773.25;4999302;28;20034;-71
2021/12/20 05:30:16;;;;;;;27.38;4.25;;;;;;;5.07;88.11;102768.09;4999624;28;20034;-71
2021/12/20 05:32:43;;;;;;;25.42;4.47;;;;;;;5.05;86.32;102764.47;5003622;28;20034;-72
2021/12/20 05:35:10;;;;;;;20.92;4.28;;;;;;;5.04;86.89;102768.75;5024601;28;20041;-72
2021/12/20 05:37:36;;;;;;;29.33;4.65;;;;;;;5.04;87.06;102773.91;4998293;28;20082;-72
2021/12/20 05:40:03;;;;;;;25.50;5.20;;;;;;;5.04;87.37;102767.84;5003576;28;20038;-72
2021/12/20 05:42:28;;;;;;;29.52;4.82;;;;;;;5.03;87.23;102764.34;5006716;28;20385;-72
2021/12/20 05:44:55;;;;;;;22.27;4.70;;;;;;;5.03;86.89;102772.09;5009612;28;20025;-72
2021/12/20 05:47:22;;;;;;;26.13;4.72;;;;;;;5.03;87.22;102772.09;5006946;28;21068;-72
2021/12/20 05:49:48;;;;;;;26.48;4.57;;;;;;;5.01;86.84;102768.50;5006375;28;20104;-72
2021/12/20 05:52:13;;;;;;;18.95;3.97;;;;;;;5.02;86.95;102772.88;5009672;28;20069;-72
2021/12/20 05:54:38;;;;;;;24.63;4.45;;;;;;;5.00;87.23;102761.53;5010929;28;20141;-72
2021/12/20 05:57:04;;;;;;;22.63;3.63;;;;;;;5.02;86.89;102774.56;5010459;28;20026;-72
2021/12/20 05:59:29;;;;;;;17.23;3.85;;;;;;;5.02;86.96;102769.41;5010770;28;20096;-72
2021/12/20 06:01:54;;;;;;;23.98;4.05;;;;;;;5.03;87.04;102774.69;4995350;28;20032;-72
2021/12/20 06:04:20;;;;;;;19.33;3.30;;;;;;;5.01;87.42;102772.75;5009963;28;20417;-72
2021/12/20 06:06:45;;;;;;;24.25;3.80;;;;;;;5.00;87.24;102773.56;5010204;28;20102;-72
2021/12/20 06:09:11;;;;;;;20.88;4.35;;;;;;;4.99;87.21;102772.63;5010957;28;20543;-72
2021/12/20 06:11:36;;;;;;;23.80;4.00;;;;;;;4.98;87.50;102768.28;5007876;28;20042;-72
2021/12/20 06:14:01;;;;;;;29.35;4.43;;;;;;;5.00;87.72;102782.19;5010518;28;20025;-72
2021/12/20 06:16:26;;;;;;;27.52;4.13;;;;;;;5.00;87.01;102778.72;5002181;28;20029;-72
2021/12/20 06:18:53;;;;;;;25.45;4.13;;;;;;;4.99;87.07;102782.97;5010680;28;20113;-72
2021/12/20 06:21:18;;;;;;;24.50;4.13;;;;;;;4.99;87.05;102784.66;5009344;28;20112;-72
2021/12/20 06:23:44;;;;;;;21.38;3.97;;;;;;;4.97;86.85;102786.25;5010040;28;20561;-72
2021/12/20 06:26:09;;;;;;;24.55;3.67;;;;;;;4.97;85.94;102789.72;5009301;28;20038;-72
2021/12/20 06:28:35;;;;;;;20.83;4.15;;;;;;;4.98;87.05;102786.38;5004755;28;20029;-73
2021/12/20 06:31:01;;;;;;;25.17;4.40;;;;;;;4.98;86.70;102781.19;5005064;28;20021;-65
2021/12/20 06:33:26;;;;;;;21.63;3.53;;;;;;;4.99;86.17;102785.56;5008697;28;20037;-65
2021/12/20 06:35:52;;;;;;;18.73;3.78;;;;;;;5.00;86.55;102789.06;5009018;28;20025;-65
2021/12/20 06:38:21;;;;;;;24.50;3.72;;;;;;;4.99;86.06;102787.25;5010299;28;20113;-65
2021/12/20 06:40:48;;;;;;;19.92;4.22;;;;;;;4.98;86.29;102788.94;5008544;28;20101;-65
2021/12/20 06:43:14;;;;;;;21.58;5.05;;;;;;;4.98;85.96;102785.44;5010396;28;20488;-65
2021/12/20 06:45:39;;;;;;;27.58;5.00;;;;;;;4.98;85.65;102795.78;5009566;28;20565;-65
2021/12/20 06:48:05;;;;;;;24.35;4.75;;;;;;;4.98;87.20;102793.19;5009263;28;20041;-64
2021/12/20 06:50:30;;;;;;;23.08;4.43;;;;;;;4.97;86.50;102791.41;5009271;28;20037;-63
2021/12/20 06:52:56;;;;;;;32.63;5.50;;;;;;;4.97;85.87;102797.47;5010195;28;20109;-64
2021/12/20 06:55:21;;;;;;;29.85;5.68;;;;;;;4.98;85.67;102801.88;5009913;28;20022;-63
2021/12/20 06:57:47;;;;;;;21.95;5.05;;;;;;;4.98;86.32;102803.53;5001929;28;20461;-65
2021/12/20 07:00:13;;;;;;;25.95;5.68;;;;;;;4.99;86.73;102800.16;5001014;28;20155;-65
2021/12/20 07:02:38;;;;;;;23.55;5.85;;;;;;;4.96;86.54;102800.81;5011377;28;20481;-65
2021/12/20 07:05:04;;;;;;;20.70;4.20;;;;;;;4.96;86.79;102818.03;5013781;28;20444;-65
2021/12/20 07:07:30;;;;;;;22.25;3.97;;;;;;;4.94;87.11;102810.16;5013238;28;20087;-65
2021/12/20 07:09:56;;;;;;;27.65;4.13;;;;;;;4.92;87.12;102803.94;5013805;28;20021;-65
2021/12/20 07:12:21;;;;;;;14.80;3.55;;;;;;;4.91;86.22;102812.50;5013510;28;20045;-65
2021/12/20 07:14:50;;;;;;;16.45;2.92;;;;;;;4.90;86.57;102810.69;5014026;28;20104;-65
2021/12/20 07:17:15;;;;;;;22.00;3.55;;;;;;;4.90;86.04;102809.78;5012687;28;20032;-65
2021/12/20 07:19:41;;;;;;;26.27;3.90;;;;;;;4.88;86.13;102812.22;5013423;28;20033;-65
2021/12/20 07:22:06;;;;;;;20.95;3.30;;;;;;;4.87;86.53;102805.28;5013300;28;20057;-65
2021/12/20 07:24:31;;;;;;;23.70;3.55;;;;;;;4.85;86.90;102809.41;5013815;28;20405;-65
2021/12/20 07:26:57;;;;;;;22.15;3.35;;;;;;;4.84;86.66;102805.03;5012597;28;20036;-64
2021/12/20 07:29:22;;;;;;;22.40;3.25;;;;;;;4.83;86.64;102813.56;5013441;28;20099;-64
2021/12/20 07:31:49;;;;;;;22.63;3.60;;;;;;;4.82;86.81;102810.09;5044843;28;20022;-65
2021/12/20 07:34:14;;;;;;;17.77;3.50;;;;;;;4.82;86.53;102812.69;5004130;28;20037;-65
2021/12/20 07:36:40;;;;;;;17.48;3.40;;;;;;;4.83;86.45;102813.56;5006223;28;20034;-65
2021/12/20 07:39:06;;;;;;;29.67;4.93;;;;;;;4.83;86.47;102808.41;5002952;28;20046;-65
2021/12/20 07:41:31;;;;;;;23.33;3.70;;;;;;;4.81;86.42;102805.69;5002875;28;20549;-64
2021/12/20 07:43:57;;;;;;;22.90;4.45;;;;;;;4.81;86.24;102809.97;4997363;28;20157;-64
2021/12/20 07:46:22;;;;;;;21.83;3.88;;;;;;;4.80;85.95;102811.63;5006736;28;20542;-64
2021/12/20 07:48:49;;;;;;;17.80;3.53;;;;;;;4.82;85.92;102811.75;5004903;28;20026;-65
2021/12/20 07:51:14;;;;;;;22.80;3.75;;;;;;;4.81;86.79;102813.44;5012875;28;20029;-65
2021/12/20 07:53:41;;;;;;;19.70;3.90;;;;;;;4.81;86.41;102815.13;5013345;28;20018;-64
2021/12/20 07:56:07;;;;;;;25.83;3.95;;;;;;;4.79;86.02;102816.69;5012110;28;20030;-64
2021/12/20 07:58:32;;;;;;;16.02;4.00;;;;;;;4.80;86.74;102823.66;5012937;28;20128;-64
2021/12/20 08:00:58;;;;;;;19.35;4.25;;;;;;;4.79;86.46;102821.84;5012714;28;20030;-64
2021/12/20 08:03:24;;;;;;;21.52;3.28;;;;;;;4.78;84.69;102814.88;5013164;28;20057;-64
2021/12/20 08:05:50;;;;;;;16.85;3.35;;;;;;;4.80;85.58;102815.91;5001430;28;20026;-64
2021/12/20 08:08:15;;;;;;;21.65;3.80;;;;;;;4.79;85.93;102815.00;5006840;28;20135;-64
2021/12/20 08:10:41;;;;;;;19.55;3.58;;;;;;;4.78;86.32;102815.78;5011923;28;20025;-64
2021/12/20 08:13:08;;;;;;;18.65;3.30;;;;;;;4.80;86.54;102826.25;5011380;28;20036;-64
2021/12/20 08:15:33;;;;;;;22.20;3.78;;;;;;;4.79;86.55;102827.00;5011263;28;20567;-64
2021/12/20 08:17:58;;;;;;;21.02;3.95;;;;;;;4.80;86.54;102827.13;5005785;28;20038;-64
2021/12/20 08:20:24;;;;;;;25.33;4.20;;;;;;;4.81;86.84;102823.78;5002461;28;20121;-64
2021/12/20 08:22:50;;;;;;;23.63;3.85;;;;;;;4.82;86.79;102832.41;5001321;28;20026;-64
2021/12/20 08:25:18;;;;;;;20.55;3.80;;;;;;;4.82;86.78;102828.19;5000906;28;20022;-64
2021/12/20 08:27:44;;;;;;;29.63;4.45;;;;;;;4.83;86.98;102834.22;5001275;28;20548;-64
2021/12/20 08:30:09;;;;;;;23.50;3.60;;;;;;;4.83;87.41;102834.22;4997001;28;20042;-64
2021/12/20 08:32:36;;;;;;;28.40;3.50;;;;;;;4.83;87.38;102829.94;4999143;28;20033;-64
2021/12/20 08:35:03;;;;;;;21.00;3.90;;;;;;;4.84;88.36;102838.63;5010769;28;20033;-64
2021/12/20 08:37:28;;;;;;;19.27;3.72;;;;;;;4.85;87.93;102827.50;5011581;28;20396;-65
2021/12/20 08:39:53;;;;;;;21.58;4.93;;;;;;;4.85;87.13;102833.56;5012259;28;20477;-64
2021/12/20 08:42:19;;;;;;;24.20;4.63;;;;;;;4.87;86.67;102831.13;5010888;28;20040;-64
2021/12/20 08:44:44;;;;;;;22.80;4.38;;;;;;;4.90;86.20;102835.63;5003612;28;20505;-64
2021/12/20 08:47:10;;;;;;;21.55;4.30;;;;;;;4.90;85.01;102836.50;5008193;28;20396;-64
2021/12/20 08:49:35;;;;;;;19.92;4.20;;;;;;;4.92;85.79;102832.34;5012072;28;20030;-64
2021/12/20 08:52:01;;;;;;;28.08;4.50;;;;;;;4.94;86.22;102848.91;5010603;28;20036;-65
2021/12/20 08:54:28;;;;;;;16.83;4.00;;;;;;;4.96;87.14;102839.56;5009117;28;20040;-64
2021/12/20 08:56:55;;;;;;;25.98;4.50;;;;;;;4.98;84.70;102835.44;5011508;28;20044;-64
2021/12/20 08:59:20;;;;;;;15.80;3.60;;;;;;;4.98;85.07;102829.34;5011580;28;20321;-65
2021/12/20 09:01:45;;;;;;;27.05;4.18;;;;;;;5.00;85.27;102839.03;5008677;28;20049;-65
2021/12/20 09:04:11;;;;;;;19.08;3.83;;;;;;;5.02;85.34;102842.63;5031182;28;20485;-65
2021/12/20 09:06:41;;;;;;;18.20;4.13;;;;;;;5.03;85.81;102841.84;5011279;28;20088;-65
2021/12/20 09:09:10;;;;;;;17.38;4.00;;;;;;;5.05;86.21;102836.81;5012127;28;20026;-65
2021/12/20 09:11:36;;;;;;;19.65;3.67;;;;;;;5.07;86.18;102840.44;5009385;28;20084;-65
2021/12/20 09:14:02;;;;;;;23.15;4.03;;;;;;;5.08;85.87;102841.31;5010911;28;20033;-65
2021/12/20 09:16:27;;;;;;;21.65;3.83;;;;;;;5.11;86.24;102837.28;5010488;28;20033;-65
2021/12/20 09:18:53;;;;;;;19.20;3.63;;;;;;;5.13;86.55;102847.78;5009796;28;20493;-65
2021/12/20 09:21:18;;;;;;;27.63;4.50;;;;;;;5.15;86.81;102853.94;5011043;28;20439;-65
2021/12/20 09:23:43;;;;;;;17.88;4.07;;;;;;;5.15;86.43;102848.78;5010731;28;20022;-64
2021/12/20 09:26:10;;;;;;;20.15;3.35;;;;;;;5.18;86.74;102854.19;5007228;28;20538;-65
2021/12/20 09:28:36;;;;;;;24.83;4.10;;;;;;;5.18;85.33;102852.47;5010385;28;20050;-67
2021/12/20 09:31:03;;;;;;;20.50;4.93;;;;;;;5.22;85.33;102856.22;5011067;28;20036;-64
2021/12/20 09:33:28;;;;;;;23.08;4.68;;;;;;;5.25;85.03;102861.63;5042692;28;20046;-64
2021/12/20 09:35:54;;;;;;;19.27;4.32;;;;;;;5.31;85.66;102861.19;5010252;28;20072;-64
2021/12/20 09:38:21;;;;;;;25.45;4.43;;;;;;;5.35;85.86;102865.84;5010935;28;20018;-64
2021/12/20 09:43:49;;;;;;;21.55;5.85;;;;;;;5.40;84.96;102860.25;4999828;28;20052;-64
2021/12/20 09:46:17;;;;;;;29.55;7.15;;;;;;;5.43;84.79;102867.34;5009940;28;20251;-64
2021/12/20 09:48:47;;;;;;;30.55;8.00;;;;;;;5.46;85.23;102866.66;5010928;28;20040;-64
2021/12/20 09:51:14;;;;;;;36.85;11.57;;;;;;;5.49;85.94;102870.38;5010572;28;20026;-64
2021/12/20 09:53:40;;;;;;;26.40;5.43;;;;;;;5.50;84.87;102871.28;5010200;28;20067;-63
2021/12/20 09:56:06;;;;;;;23.13;4.82;;;;;;;5.52;85.52;102873.22;5004164;28;20033;-64
2021/12/20 09:58:38;;;;;;;19.80;4.13;;;;;;;5.52;84.93;102872.31;5009036;28;20049;-63
2021/12/20 10:01:06;;;;;;;21.70;4.10;;;;;;;5.54;83.89;102875.91;5009606;28;20479;-64
2021/12/20 10:03:33;;;;;;;23.10;4.70;;;;;;;5.55;83.62;102872.56;4997328;28;20077;-64
2021/12/20 10:05:59;;;;;;;21.70;4.45;;;;;;;5.54;83.11;102869.03;5010659;28;20114;-63
2021/12/20 10:08:33;;;;;;;20.73;4.57;;;;;;;5.56;84.16;102870.06;5007402;28;20112;-63
2021/12/20 10:11:03;;;;;;;16.00;4.00;;;;;;;5.58;84.38;102870.19;5006194;28;20034;-63
2021/12/20 10:13:34;;;;;;;25.20;4.93;;;;;;;5.61;84.20;102875.59;5010079;28;20034;-63
2021/12/20 10:16:02;;;;;;;20.73;5.00;;;;;;;5.62;84.38;102876.47;5007426;28;20061;-64
2021/12/20 10:18:31;;;;;;;29.00;5.60;;;;;;;5.63;84.74;102871.44;5010295;28;20084;-64
2021/12/20 10:20:59;;;;;;;19.92;5.13;;;;;;;5.65;84.23;102876.72;5010557;28;20185;-63
2021/12/20 10:23:31;;;;;;;24.85;5.30;;;;;;;5.66;84.21;102875.94;5009414;28;20547;-63
2021/12/20 10:26:04;;;;;;;20.90;4.78;;;;;;;5.67;83.84;102877.75;5010298;28;20057;-63
2021/12/20 10:28:33;;;;;;;20.75;4.10;;;;;;;5.68;84.25;102883.03;5010102;28;20029;-63
2021/12/20 10:31:02;;;;;;;21.50;4.63;;;;;;;5.70;84.23;102880.56;5009161;28;20121;-64
2021/12/20 10:33:28;;;;;;;27.17;5.20;;;;;;;5.71;84.39;102880.69;5010300;28;20381;-63
2021/12/20 10:35:56;;;;;;;21.42;5.70;;;;;;;5.72;85.15;102872.16;5008074;28;20473;-64
2021/12/20 10:38:27;;;;;;;20.42;4.95;;;;;;;5.75;83.98;102868.91;5009942;28;20477;-64
2021/12/20 10:41:01;;;;;;;22.52;5.72;;;;;;;5.75;84.68;102872.38;5009682;28;20052;-63
2021/12/20 10:43:36;;;;;;;19.17;4.75;;;;;;;5.77;83.56;102871.59;5010014;28;20026;-64
2021/12/20 10:46:10;;;;;;;20.50;4.47;;;;;;;5.78;84.42;102871.72;5010414;28;20037;-64
2021/12/20 10:48:36;;;;;;;23.55;5.25;;;;;;;5.79;84.80;102882.94;5009884;28;20025;-64
2021/12/20 10:51:01;;;;;;;23.95;5.03;;;;;;;5.81;84.84;102876.19;5009398;28;20037;-63
2021/12/20 10:53:27;;;;;;;23.90;4.65;;;;;;;5.82;84.90;102867.66;5007245;28;20173;-64
2021/12/20 10:55:55;;;;;;;17.08;4.95;;;;;;;5.83;84.98;102878.13;5007557;28;20033;-64
2021/12/20 10:58:29;;;;;;;24.00;6.13;;;;;;;5.85;84.13;102860.13;5009631;28;20272;-63
2021/12/20 11:04:24;;;;;;;20.83;4.95;;;;;;;5.90;85.51;102869.16;5017477;28;20099;-64
2021/12/20 11:09:23;;;;;;;25.10;5.18;;;;;;;5.91;84.13;102864.09;5009255;28;20501;-64
2021/12/20 11:11:54;;;;;;;23.55;4.57;;;;;;;5.94;84.62;102863.44;5009905;28;20076;-64
2021/12/20 11:14:22;;;;;;;29.00;5.13;;;;;;;5.96;85.01;102869.59;5008367;28;20501;-64
2021/12/20 11:16:53;;;;;;;22.27;5.70;;;;;;;5.98;84.87;102870.66;5007957;28;20966;-64
2021/12/20 11:19:20;;;;;;;19.63;5.00;;;;;;;6.00;83.76;102865.59;4996676;28;20018;-64
2021/12/20 11:21:45;;;;;;;23.00;5.30;;;;;;;6.02;83.03;102867.50;5009666;28;20493;-64
2021/12/20 11:24:14;;;;;;;26.13;5.97;;;;;;;6.03;82.93;102858.97;5009207;28;20041;-64
2021/12/20 11:26:40;;;;;;;29.70;5.30;;;;;;;6.03;82.77;102858.97;5010207;28;20030;-64
2021/12/20 11:29:05;;;;;;;26.13;5.75;;;;;;;6.06;83.39;102853.13;5009927;28;20411;-64
2021/12/20 11:31:32;;;;;;;23.33;5.10;;;;;;;6.07;83.21;102865.28;5009747;28;20524;-64
2021/12/20 11:33:59;;;;;;;22.27;5.65;;;;;;;6.08;83.54;102860.22;5009869;28;20412;-64
2021/12/20 11:36:25;;;;;;;18.83;4.75;;;;;;;6.08;83.44;102865.41;5009263;28;20029;-64
2021/12/20 11:38:52;;;;;;;29.45;5.10;;;;;;;6.11;83.58;102864.69;5000035;28;20110;-64
2021/12/20 11:41:18;;;;;;;25.20;4.50;;;;;;;6.12;82.45;102863.03;5009871;28;20484;-64